createdAt,value
2023-03-06T00:00:27.254Z,9.08
2023-03-06T00:02:54.579Z,9.05
2023-03-06T00:05:22.145Z,9.09
2023-03-06T00:07:49.440Z,9.08
2023-03-06T00:10:18.093Z,9.02
2023-03-06T00:12:45.353Z,9.00
2023-03-06T00:15:13.020Z,9.02
2023-03-06T00:17:40.306Z,9.02
2023-03-06T00:20:08.539Z,8.98
2023-03-06T00:22:35.772Z,8.90
2023-03-06T00:25:09.314Z,8.92
2023-03-06T00:27:36.587Z,8.97
2023-03-06T00:30:05.207Z,8.98
2023-03-06T00:32:32.590Z,8.95
2023-03-06T00:34:59.835Z,8.87
2023-03-06T00:37:28.289Z,8.80
2023-03-06T00:39:56.311Z,8.79
2023-03-06T00:42:25.419Z,8.79
2023-03-06T00:44:52.789Z,8.83
2023-03-06T00:47:20.031Z,8.82
2023-03-06T00:49:50.496Z,8.81
2023-03-06T00:52:17.816Z,8.80
2023-03-06T00:54:45.068Z,8.76
2023-03-06T00:57:12.274Z,8.74
2023-03-06T00:59:40.107Z,8.77
2023-03-06T01:02:07.422Z,8.78
2023-03-06T01:04:34.767Z,8.80
2023-03-06T01:07:02.246Z,8.72
2023-03-06T01:09:31.404Z,8.69
2023-03-06T01:11:58.842Z,8.65
2023-03-06T01:14:29.125Z,8.70
2023-03-06T01:16:56.442Z,8.73
2023-03-06T01:19:23.684Z,8.66
2023-03-06T01:21:51.967Z,8.65
2023-03-06T01:24:19.232Z,8.65
2023-03-06T01:26:47.482Z,8.68
2023-03-06T01:29:19.113Z,8.72
2023-03-06T01:31:47.509Z,8.75
2023-03-06T01:34:15.044Z,8.71
2023-03-06T01:36:42.455Z,8.70
2023-03-06T01:39:09.679Z,8.67
2023-03-06T01:41:37.005Z,8.55
2023-03-06T01:44:04.323Z,8.57
2023-03-06T01:46:33.971Z,8.57
2023-03-06T01:49:02.925Z,8.50
2023-03-06T01:51:39.757Z,8.45
2023-03-06T01:54:09.502Z,8.41
2023-03-06T01:56:37.141Z,8.37
2023-03-06T01:59:04.749Z,8.34
2023-03-06T02:01:32.771Z,8.39
2023-03-06T02:04:00.760Z,8.36
2023-03-06T02:06:31.512Z,8.43
2023-03-06T02:09:04.007Z,8.43
2023-03-06T02:11:31.288Z,8.44
2023-03-06T02:13:59.193Z,8.39
2023-03-06T02:16:30.915Z,8.40
2023-03-06T02:19:00.782Z,8.41
2023-03-06T02:21:31.678Z,8.43
2023-03-06T02:24:11.172Z,8.43
2023-03-06T02:26:39.520Z,8.48
2023-03-06T02:29:07.447Z,8.54
2023-03-06T02:31:35.691Z,8.58
2023-03-06T02:34:04.625Z,8.62
2023-03-06T02:36:33.589Z,8.61
2023-03-06T02:39:01.730Z,8.63
2023-03-06T02:41:29.328Z,8.58
2023-03-06T02:43:56.846Z,8.48
2023-03-06T02:46:24.144Z,8.49
2023-03-06T02:48:52.268Z,8.46
2023-03-06T02:51:22.180Z,8.44
2023-03-06T02:53:50.313Z,8.47
2023-03-06T02:56:19.315Z,8.52
2023-03-06T02:58:46.674Z,8.49
2023-03-06T03:01:14.267Z,8.47
2023-03-06T03:03:43.287Z,8.49
2023-03-06T03:06:11.189Z,8.50
2023-03-06T03:08:40.625Z,8.46
2023-03-06T03:11:09.408Z,8.45
2023-03-06T03:13:40.118Z,8.46
2023-03-06T03:16:14.251Z,8.40
2023-03-06T03:18:44.445Z,8.35
2023-03-06T03:21:12.885Z,8.20
2023-03-06T03:23:40.498Z,8.28
2023-03-06T03:26:08.079Z,8.31
2023-03-06T03:28:36.968Z,8.39
2023-03-06T03:31:08.885Z,8.41
2023-03-06T03:33:36.888Z,8.39
2023-03-06T03:36:05.817Z,8.34
2023-03-06T03:38:35.277Z,8.37
2023-03-06T03:41:03.149Z,8.41
2023-03-06T03:43:31.507Z,8.39
2023-03-06T03:45:59.776Z,8.35
2023-03-06T03:48:27.060Z,8.31
2023-03-06T03:51:04.380Z,8.19
2023-03-06T03:53:31.634Z,8.25
2023-03-06T03:55:59.482Z,8.30
2023-03-06T03:58:27.704Z,8.30
2023-03-06T04:00:56.203Z,8.30
2023-03-06T04:03:23.557Z,8.30
2023-03-06T04:05:54.020Z,8.23
2023-03-06T04:08:22.108Z,8.22
2023-03-06T04:10:51.263Z,8.21
2023-03-06T04:13:21.084Z,8.16
2023-03-06T04:15:51.544Z,8.11
2023-03-06T04:18:21.019Z,8.11
2023-03-06T04:20:50.260Z,8.18
2023-03-06T04:23:19.698Z,8.17
2023-03-06T04:25:47.237Z,8.20
2023-03-06T04:28:14.712Z,8.25
2023-03-06T04:30:42.502Z,8.22
2023-03-06T04:33:09.983Z,8.23
2023-03-06T04:35:39.950Z,8.22
2023-03-06T04:38:13.187Z,8.27
2023-03-06T04:40:42.269Z,8.26
2023-03-06T04:43:11.276Z,8.21
2023-03-06T04:45:38.602Z,8.19
2023-03-06T04:48:06.296Z,8.21
2023-03-06T04:50:36.544Z,8.29
2023-03-06T04:53:04.828Z,8.22
2023-03-06T04:55:34.991Z,8.20
2023-03-06T04:58:02.482Z,8.18
2023-03-06T05:00:31.705Z,8.15
2023-03-06T05:03:00.259Z,8.19
2023-03-06T05:05:27.685Z,8.27
2023-03-06T05:07:55.126Z,8.24
2023-03-06T05:10:23.803Z,8.28
2023-03-06T05:12:51.614Z,8.35
2023-03-06T05:15:18.929Z,8.39
2023-03-06T05:17:47.590Z,8.34
2023-03-06T05:20:15.619Z,8.13
2023-03-06T05:22:43.179Z,7.97
2023-03-06T05:25:10.875Z,7.87
2023-03-06T05:27:38.671Z,7.94
2023-03-06T05:30:06.344Z,7.81
2023-03-06T05:32:35.738Z,7.71
2023-03-06T05:35:03.736Z,7.80
2023-03-06T05:37:31.458Z,7.72
2023-03-06T05:39:59.154Z,7.72
2023-03-06T05:42:28.821Z,7.74
2023-03-06T05:44:57.330Z,7.79
2023-03-06T05:47:26.637Z,7.66
2023-03-06T05:49:54.666Z,7.65
2023-03-06T05:52:21.940Z,7.62
2023-03-06T05:54:55.749Z,7.71
2023-03-06T05:57:24.919Z,7.65
2023-03-06T05:59:52.173Z,7.76
2023-03-06T06:02:20.941Z,7.78
2023-03-06T06:04:49.425Z,7.73
2023-03-06T06:07:17.184Z,7.60
2023-03-06T06:09:45.684Z,7.61
2023-03-06T06:12:14.967Z,7.52
2023-03-06T06:14:42.222Z,7.39
2023-03-06T06:17:09.562Z,7.53
2023-03-06T06:19:36.767Z,7.55
2023-03-06T06:22:04.762Z,7.54
2023-03-06T06:24:32.219Z,7.55
2023-03-06T06:27:01.466Z,7.71
2023-03-06T06:29:30.898Z,7.73
2023-03-06T06:31:58.244Z,7.78
2023-03-06T06:34:26.613Z,7.78
2023-03-06T06:36:54.576Z,7.71
2023-03-06T06:39:22.834Z,7.86
2023-03-06T06:42:03.029Z,7.74
2023-03-06T06:44:37.819Z,7.59
2023-03-06T06:47:23.966Z,7.72
2023-03-06T06:49:53.172Z,7.82
2023-03-06T06:52:20.601Z,7.73
2023-03-06T06:54:49.212Z,7.57
2023-03-06T06:57:17.621Z,7.56
2023-03-06T06:59:44.851Z,7.50
2023-03-06T07:02:13.245Z,7.50
2023-03-06T07:04:49.352Z,7.46
2023-03-06T07:07:26.511Z,7.39
2023-03-06T07:09:55.677Z,7.42
2023-03-06T07:12:23.096Z,7.52
2023-03-06T07:14:51.533Z,7.61
2023-03-06T07:17:18.803Z,7.51
2023-03-06T07:19:46.058Z,7.60
2023-03-06T07:22:13.672Z,7.59
2023-03-06T07:24:40.899Z,7.57
2023-03-06T07:27:08.191Z,7.61
2023-03-06T07:29:37.532Z,7.71
2023-03-06T07:32:06.011Z,7.74
2023-03-06T07:34:39.499Z,7.77
2023-03-06T07:37:06.807Z,7.88
2023-03-06T07:39:34.057Z,7.98
2023-03-06T07:42:01.325Z,8.23
2023-03-06T07:44:28.548Z,8.22
2023-03-06T07:46:55.949Z,8.36
2023-03-06T07:49:23.352Z,8.46
2023-03-06T07:51:50.593Z,8.65
2023-03-06T07:54:17.900Z,8.84
2023-03-06T07:56:45.662Z,9.01
2023-03-06T07:59:13.008Z,9.20
2023-03-06T08:01:40.473Z,9.07
2023-03-06T08:04:07.949Z,9.14
2023-03-06T08:06:35.220Z,9.07
2023-03-06T08:09:02.779Z,9.01
2023-03-06T08:11:31.510Z,8.86
2023-03-06T08:13:59.557Z,8.80
2023-03-06T08:16:28.528Z,8.90
2023-03-06T08:18:57.044Z,8.83
2023-03-06T08:21:25.307Z,8.78
2023-03-06T08:23:52.743Z,8.72
2023-03-06T08:26:22.024Z,8.61
2023-03-06T08:28:51.460Z,8.49
2023-03-06T08:31:25.649Z,8.57
2023-03-06T08:33:53.630Z,8.73
2023-03-06T08:36:21.039Z,8.84
2023-03-06T08:38:48.389Z,9.08
2023-03-06T08:41:16.132Z,9.17
2023-03-06T08:43:43.761Z,9.20
2023-03-06T08:46:11.207Z,9.02
2023-03-06T08:48:38.547Z,8.97
2023-03-06T08:51:05.936Z,8.73
2023-03-06T08:53:42.710Z,8.79
2023-03-06T08:56:17.079Z,8.69
2023-03-06T08:58:44.494Z,8.71
2023-03-06T09:01:18.998Z,8.79
2023-03-06T09:03:46.359Z,8.73
2023-03-06T09:06:14.113Z,8.62
2023-03-06T09:08:44.561Z,8.64
2023-03-06T09:11:12.609Z,8.57
2023-03-06T09:13:39.946Z,8.61
2023-03-06T09:16:08.266Z,8.68
2023-03-06T09:18:35.591Z,8.63
2023-03-06T09:21:04.108Z,8.74
2023-03-06T09:23:31.478Z,8.67
2023-03-06T09:25:59.623Z,8.80
2023-03-06T09:28:26.920Z,8.70
2023-03-06T09:30:54.294Z,8.61
2023-03-06T09:33:22.186Z,8.66
2023-03-06T09:35:53.749Z,8.76
2023-03-06T09:38:26.743Z,8.80
2023-03-06T09:41:00.498Z,8.85
2023-03-06T09:43:27.694Z,8.80
2023-03-06T09:45:55.002Z,8.83
2023-03-06T09:48:27.017Z,8.80
2023-03-06T09:51:02.212Z,8.69
2023-03-06T09:53:36.965Z,8.86
2023-03-06T09:56:10.473Z,8.95
2023-03-06T09:58:42.189Z,8.90
2023-03-06T10:01:19.791Z,8.88
2023-03-06T10:04:19.624Z,8.99
2023-03-06T10:06:55.562Z,8.96
2023-03-06T10:09:26.997Z,9.03
2023-03-06T10:12:02.672Z,9.02
2023-03-06T10:14:35.823Z,9.07
2023-03-06T10:17:03.939Z,8.85
2023-03-06T10:19:35.713Z,8.66
2023-03-06T10:22:21.467Z,8.39
2023-03-06T10:24:51.467Z,8.37
2023-03-06T10:27:28.144Z,8.34
2023-03-06T10:30:12.259Z,8.58
2023-03-06T10:32:49.453Z,8.86
2023-03-06T10:35:22.383Z,8.98
2023-03-06T10:37:49.754Z,8.94
2023-03-06T10:40:19.605Z,8.92
2023-03-06T10:42:46.881Z,8.92
2023-03-06T10:45:17.731Z,8.89
2023-03-06T10:47:45.092Z,8.77
2023-03-06T10:50:18.601Z,8.78
2023-03-06T10:52:58.032Z,8.89
2023-03-06T10:55:31.641Z,8.98
2023-03-06T10:58:16.412Z,9.03
2023-03-06T11:00:44.775Z,8.99
2023-03-06T11:03:22.698Z,8.97
2023-03-06T11:05:54.197Z,8.98
2023-03-06T11:08:24.368Z,9.05
2023-03-06T11:11:18.550Z,8.98
2023-03-06T11:13:57.103Z,8.85
2023-03-06T11:16:30.599Z,8.94
2023-03-06T11:19:03.973Z,8.83
2023-03-06T11:21:32.772Z,8.80
2023-03-06T11:24:04.154Z,8.93
2023-03-06T11:26:41.490Z,8.90
2023-03-06T11:29:28.527Z,8.89
2023-03-06T11:31:56.561Z,8.82
2023-03-06T11:34:36.522Z,8.81
2023-03-06T11:37:07.155Z,8.86
2023-03-06T11:39:49.551Z,8.81
2023-03-06T11:42:29.203Z,8.80
2023-03-06T11:45:15.683Z,8.66
2023-03-06T11:47:46.471Z,8.63
2023-03-06T11:50:36.960Z,8.52
2023-03-06T11:53:06.297Z,8.40
2023-03-06T11:55:42.779Z,8.35
2023-03-06T11:58:29.255Z,8.39
2023-03-06T12:01:06.639Z,8.40
2023-03-06T12:03:46.408Z,8.38
2023-03-06T12:06:32.822Z,8.37
2023-03-06T12:09:04.974Z,8.45
2023-03-06T12:11:42.301Z,8.37
2023-03-06T12:14:22.662Z,8.44
2023-03-06T12:16:59.740Z,8.53
2023-03-06T12:19:30.788Z,8.46
2023-03-06T12:22:10.812Z,8.36
2023-03-06T12:24:41.054Z,8.36
2023-03-06T12:27:31.638Z,8.33
2023-03-06T12:29:58.845Z,8.27
2023-03-06T12:32:31.981Z,8.22
2023-03-06T12:35:18.199Z,8.31
2023-03-06T12:37:48.906Z,8.37
2023-03-06T12:40:19.244Z,8.36
2023-03-06T12:43:18.820Z,8.36
2023-03-06T12:45:48.221Z,8.36
2023-03-06T12:48:19.627Z,8.47
2023-03-06T12:50:47.306Z,8.55
2023-03-06T12:53:19.223Z,8.57
2023-03-06T12:55:47.621Z,8.48
2023-03-06T12:58:30.232Z,8.43
2023-03-06T13:01:04.382Z,8.51
2023-03-06T13:03:36.793Z,8.44
2023-03-06T13:06:14.129Z,8.45
2023-03-06T13:09:05.433Z,8.50
2023-03-06T13:11:44.757Z,8.51
2023-03-06T13:14:22.702Z,8.34
2023-03-06T13:16:50.190Z,8.39
2023-03-06T13:19:22.532Z,8.48
2023-03-06T13:21:55.621Z,8.52
2023-03-06T13:24:52.503Z,8.49
2023-03-06T13:27:40.876Z,8.53
2023-03-06T13:30:22.089Z,8.43
2023-03-06T13:32:52.743Z,8.58
2023-03-06T13:35:32.434Z,8.67
2023-03-06T13:38:01.261Z,8.58
2023-03-06T13:40:33.437Z,8.47
2023-03-06T13:43:12.697Z,8.50
2023-03-06T13:45:44.317Z,8.39
2023-03-06T13:48:43.156Z,8.45
2023-03-06T13:51:16.177Z,8.42
2023-03-06T13:53:44.635Z,8.43
2023-03-06T13:56:30.996Z,8.51
2023-03-06T13:58:58.194Z,8.53
2023-03-06T14:01:44.270Z,8.53
2023-03-06T14:04:20.652Z,8.60
2023-03-06T14:06:51.120Z,8.57
2023-03-06T14:09:30.734Z,8.40
2023-03-06T14:12:00.741Z,8.38
2023-03-06T14:14:34.906Z,8.57
2023-03-06T14:17:05.128Z,8.49
2023-03-06T14:19:36.458Z,8.54
2023-03-06T14:22:04.346Z,8.63
2023-03-06T14:24:37.131Z,8.66
2023-03-06T14:27:04.658Z,8.49
2023-03-06T14:29:32.820Z,8.45
2023-03-06T14:32:02.379Z,8.51
2023-03-06T14:34:33.031Z,8.52
2023-03-06T14:37:02.154Z,8.55
2023-03-06T14:39:29.485Z,8.63
2023-03-06T14:42:15.139Z,8.67
2023-03-06T14:44:42.596Z,8.60
2023-03-06T14:47:12.694Z,8.59
2023-03-06T14:49:40.053Z,8.66
2023-03-06T14:52:17.664Z,8.52
2023-03-06T14:54:46.758Z,8.36
2023-03-06T14:57:18.916Z,8.64
2023-03-06T14:59:52.618Z,8.66
2023-03-06T15:02:28.846Z,8.52
2023-03-06T15:05:03.288Z,8.65
2023-03-06T15:07:32.528Z,8.74
2023-03-06T15:10:00.447Z,8.72
2023-03-06T15:12:29.689Z,8.71
2023-03-06T15:15:01.138Z,8.75
2023-03-06T15:17:29.534Z,8.75
2023-03-06T15:20:01.196Z,8.79
2023-03-06T15:22:37.957Z,8.67
2023-03-06T15:25:26.908Z,8.59
2023-03-06T15:27:59.643Z,8.48
2023-03-06T15:30:29.016Z,8.48
2023-03-06T15:33:28.677Z,8.41
2023-03-06T15:36:03.303Z,8.50
2023-03-06T15:38:30.673Z,8.52
2023-03-06T15:41:00.669Z,8.50
2023-03-06T15:43:28.906Z,8.42
2023-03-06T15:45:58.779Z,8.50
2023-03-06T15:48:26.453Z,8.57
2023-03-06T15:50:53.769Z,8.69
2023-03-06T15:53:21.099Z,8.59
2023-03-06T15:55:49.077Z,8.58
2023-03-06T15:58:20.694Z,8.58
2023-03-06T16:00:48.259Z,8.70
2023-03-06T16:03:15.488Z,8.74
2023-03-06T16:05:42.768Z,8.81
2023-03-06T16:08:15.346Z,8.81
2023-03-06T16:10:44.111Z,8.82
2023-03-06T16:13:13.972Z,8.84
2023-03-06T16:15:46.411Z,8.82
2023-03-06T16:18:13.688Z,8.82
2023-03-06T16:20:41.666Z,8.81
2023-03-06T16:23:12.340Z,8.84
2023-03-06T16:25:40.647Z,8.84
2023-03-06T16:28:15.561Z,8.85
2023-03-06T16:30:44.349Z,8.89
2023-03-06T16:33:12.369Z,8.86
2023-03-06T16:35:41.244Z,8.82
2023-03-06T16:38:11.064Z,8.81
2023-03-06T16:40:41.406Z,8.81
2023-03-06T16:43:10.565Z,8.79
2023-03-06T16:45:39.155Z,8.79
2023-03-06T16:48:07.261Z,8.69
2023-03-06T16:50:38.418Z,8.75
2023-03-06T16:53:06.209Z,8.78
2023-03-06T16:55:33.640Z,8.81
2023-03-06T16:58:01.918Z,8.79
2023-03-06T17:00:32.159Z,8.80
2023-03-06T17:03:01.429Z,8.83
2023-03-06T17:05:29.020Z,8.82
2023-03-06T17:07:56.541Z,8.80
2023-03-06T17:10:26.384Z,8.80
2023-03-06T17:12:54.096Z,8.83
2023-03-06T17:15:21.542Z,8.84
2023-03-06T17:17:49.187Z,8.86
2023-03-06T17:20:16.470Z,8.87
2023-03-06T17:22:44.059Z,8.89
2023-03-06T17:25:11.695Z,8.89
2023-03-06T17:27:38.900Z,8.82
2023-03-06T17:30:06.615Z,8.83
2023-03-06T17:32:34.239Z,8.78
2023-03-06T17:35:02.061Z,8.78
2023-03-06T17:37:29.414Z,8.80
2023-03-06T17:39:56.725Z,8.81
2023-03-06T17:42:24.381Z,8.81
2023-03-06T17:44:53.110Z,8.85
2023-03-06T17:47:20.321Z,8.85
2023-03-06T17:49:47.632Z,8.88
2023-03-06T17:52:14.907Z,8.87
2023-03-06T17:54:42.258Z,8.82
2023-03-06T17:57:09.467Z,8.79
2023-03-06T17:59:36.819Z,8.82
2023-03-06T18:02:06.310Z,8.85
2023-03-06T18:04:34.445Z,8.83
2023-03-06T18:07:01.675Z,8.83
2023-03-06T18:09:30.261Z,8.90
2023-03-06T18:11:57.483Z,8.89
2023-03-06T18:14:25.652Z,8.89
2023-03-06T18:16:52.928Z,8.93
2023-03-06T18:19:21.447Z,8.89
2023-03-06T18:21:48.732Z,8.89
2023-03-06T18:24:16.051Z,8.89
2023-03-06T18:26:43.407Z,8.89
2023-03-06T18:29:11.760Z,8.90
2023-03-06T18:31:43.981Z,8.91
2023-03-06T18:34:12.842Z,8.92
2023-03-06T18:36:42.417Z,8.93
2023-03-06T18:39:12.022Z,8.90
2023-03-06T18:41:39.387Z,8.88
2023-03-06T18:44:06.650Z,8.88
2023-03-06T18:46:35.311Z,8.86
2023-03-06T18:49:02.920Z,8.89
2023-03-06T18:51:30.455Z,8.90
2023-03-06T18:53:58.425Z,8.91
2023-03-06T18:56:25.806Z,8.90
2023-03-06T18:58:53.574Z,8.90
2023-03-06T19:01:22.455Z,8.91
2023-03-06T19:03:49.903Z,8.91
2023-03-06T19:06:17.398Z,8.92
2023-03-06T19:08:44.925Z,8.92
2023-03-06T19:11:13.554Z,8.92
2023-03-06T19:13:40.837Z,8.89
2023-03-06T19:16:09.635Z,8.92
2023-03-06T19:18:38.672Z,8.95
2023-03-06T19:21:11.830Z,8.93
2023-03-06T19:23:39.623Z,8.89
2023-03-06T19:26:08.269Z,8.90
2023-03-06T19:28:37.067Z,8.88
2023-03-06T19:31:10.040Z,8.91
2023-03-06T19:33:40.346Z,8.88
2023-03-06T19:36:08.674Z,8.89
2023-03-06T19:38:35.988Z,8.86
2023-03-06T19:41:03.672Z,8.86
2023-03-06T19:43:32.140Z,8.90
2023-03-06T19:46:00.689Z,8.86
2023-03-06T19:48:28.020Z,8.85
2023-03-06T19:50:55.270Z,8.88
2023-03-06T19:53:23.161Z,8.88
2023-03-06T19:55:51.081Z,8.90
2023-03-06T19:58:18.359Z,8.91
2023-03-06T20:00:45.647Z,8.90
2023-03-06T20:03:12.878Z,8.89
2023-03-06T20:05:45.703Z,8.85
2023-03-06T20:08:13.368Z,8.83
2023-03-06T20:10:40.930Z,8.85
2023-03-06T20:13:08.194Z,8.87
2023-03-06T20:15:36.992Z,8.88
2023-03-06T20:18:08.399Z,8.89
2023-03-06T20:20:37.860Z,8.90
2023-03-06T20:23:05.834Z,8.91
2023-03-06T20:25:35.108Z,8.86
2023-03-06T20:28:02.517Z,8.85
2023-03-06T20:30:37.731Z,8.88
2023-03-06T20:33:05.829Z,8.83
2023-03-06T20:35:33.653Z,8.85
2023-03-06T20:38:03.166Z,8.88
2023-03-06T20:40:30.714Z,8.89
2023-03-06T20:42:59.388Z,8.86
2023-03-06T20:45:28.131Z,8.85
2023-03-06T20:47:57.282Z,8.90
2023-03-06T20:50:25.770Z,8.89
2023-03-06T20:52:54.207Z,8.89
2023-03-06T20:55:24.484Z,8.89
2023-03-06T20:57:51.889Z,8.84
2023-03-06T21:00:19.752Z,8.84
2023-03-06T21:02:47.198Z,8.83
2023-03-06T21:05:14.468Z,8.86
2023-03-06T21:07:41.816Z,8.88
2023-03-06T21:10:09.414Z,8.85
2023-03-06T21:12:36.792Z,8.89
2023-03-06T21:15:04.221Z,8.93
2023-03-06T21:17:33.248Z,8.96
2023-03-06T21:20:00.462Z,9.00
2023-03-06T21:22:30.029Z,9.03
2023-03-06T21:24:57.444Z,9.05
2023-03-06T21:27:24.657Z,9.04
2023-03-06T21:29:51.955Z,9.03
2023-03-06T21:32:19.363Z,9.05
2023-03-06T21:34:46.677Z,9.04
2023-03-06T21:37:14.037Z,9.04
2023-03-06T21:39:41.406Z,9.04
2023-03-06T21:42:08.616Z,9.06
2023-03-06T21:44:35.943Z,9.08
2023-03-06T21:47:03.261Z,9.10
2023-03-06T21:49:31.417Z,9.11
2023-03-06T21:51:59.803Z,9.08
2023-03-06T21:54:29.365Z,9.09
2023-03-06T21:56:56.986Z,9.11
2023-03-06T21:59:24.198Z,9.13
2023-03-06T22:01:52.660Z,9.13
2023-03-06T22:04:19.885Z,9.14
2023-03-06T22:06:47.207Z,9.14
2023-03-06T22:09:19.055Z,9.16
2023-03-06T22:11:47.026Z,9.16
2023-03-06T22:14:14.939Z,9.16
2023-03-06T22:16:42.264Z,9.14
2023-03-06T22:19:09.516Z,9.16
2023-03-06T22:21:38.610Z,9.18
2023-03-06T22:24:07.443Z,9.17
2023-03-06T22:26:35.191Z,9.16
2023-03-06T22:29:02.530Z,9.17
2023-03-06T22:31:30.409Z,9.12
2023-03-06T22:33:59.214Z,9.10
2023-03-06T22:36:26.864Z,9.03
2023-03-06T22:38:55.535Z,8.96
2023-03-06T22:41:23.282Z,8.89
2023-03-06T22:43:50.857Z,8.85
2023-03-06T22:46:18.516Z,8.80
2023-03-06T22:48:45.935Z,8.82
2023-03-06T22:51:14.919Z,8.77
2023-03-06T22:53:43.216Z,8.76
2023-03-06T22:56:12.203Z,8.77
2023-03-06T22:58:40.694Z,8.66
2023-03-06T23:01:10.020Z,8.66
2023-03-06T23:03:38.225Z,8.70
2023-03-06T23:06:06.851Z,8.68
2023-03-06T23:08:34.170Z,8.59
2023-03-06T23:11:01.455Z,8.54
2023-03-06T23:13:47.435Z,8.53
2023-03-06T23:16:33.916Z,8.57
2023-03-06T23:19:19.690Z,8.67
2023-03-06T23:22:05.733Z,8.72
2023-03-06T23:24:51.889Z,8.72
2023-03-06T23:27:20.378Z,8.71
2023-03-06T23:29:49.823Z,8.68
2023-03-06T23:32:18.518Z,8.68
2023-03-06T23:34:47.661Z,8.73
2023-03-06T23:37:16.116Z,8.69
2023-03-06T23:39:44.055Z,8.73
2023-03-06T23:42:11.493Z,8.79
2023-03-06T23:44:39.478Z,8.80
2023-03-06T23:47:06.824Z,8.82
2023-03-06T23:49:34.038Z,8.78
2023-03-06T23:52:03.736Z,8.79
2023-03-06T23:54:31.347Z,8.85
2023-03-06T23:56:58.542Z,8.90
2023-03-06T23:59:28.088Z,8.94
